createdAt,value
2019-03-13T00:00:46.442Z,60.87
2019-03-13T00:03:24.284Z,60.78
2019-03-13T00:06:00.013Z,60.62
2019-03-13T00:08:36.260Z,60.44
2019-03-13T00:11:12.053Z,60.40
2019-03-13T00:13:47.778Z,60.40
2019-03-13T00:16:24.553Z,60.19
2019-03-13T00:19:00.341Z,60.04
2019-03-13T00:21:36.295Z,59.83
2019-03-13T00:24:26.078Z,59.72
2019-03-13T00:27:02.027Z,59.60
2019-03-13T00:29:37.986Z,59.50
2019-03-13T00:32:13.953Z,59.38
2019-03-13T00:34:49.802Z,59.25
2019-03-13T00:37:25.650Z,59.26
2019-03-13T00:40:01.518Z,59.39
2019-03-13T00:42:37.565Z,59.31
2019-03-13T00:45:15.059Z,59.35
2019-03-13T00:47:50.915Z,59.32
2019-03-13T00:50:29.114Z,59.29
2019-03-13T00:53:04.982Z,58.91
2019-03-13T00:55:40.831Z,58.89
2019-03-13T00:58:25.511Z,58.71
2019-03-13T01:01:21.132Z,58.37
2019-03-13T01:04:10.182Z,58.11
2019-03-13T01:06:56.108Z,57.73
2019-03-13T01:09:46.816Z,57.34
2019-03-13T01:15:42.602Z,56.87
2019-03-13T01:18:38.719Z,56.73
2019-03-13T01:21:25.540Z,56.21
2019-03-13T01:27:51.489Z,55.82
2019-03-13T01:30:28.892Z,55.39
2019-03-13T01:33:06.281Z,55.21
2019-03-13T01:35:43.657Z,54.99
2019-03-13T01:38:19.541Z,54.95
2019-03-13T01:40:55.374Z,54.67
2019-03-13T01:43:31.223Z,54.71
2019-03-13T01:46:07.073Z,54.50
2019-03-13T01:48:42.927Z,54.25
2019-03-13T01:51:19.104Z,54.17
2019-03-13T01:53:54.956Z,54.16
2019-03-13T01:56:30.906Z,54.18
2019-03-13T01:59:06.763Z,53.98
2019-03-13T02:01:42.629Z,54.03
2019-03-13T02:04:21.858Z,53.88
2019-03-13T02:10:26.028Z,53.77
2019-03-13T02:13:14.891Z,53.79
2019-03-13T02:19:14.295Z,52.87
2019-03-13T02:25:56.360Z,52.41
2019-03-13T02:29:11.593Z,52.43
2019-03-13T02:35:44.172Z,51.59
2019-03-13T02:38:21.661Z,51.91
2019-03-13T02:40:59.953Z,51.77
2019-03-13T02:43:36.137Z,51.46
2019-03-13T02:46:11.996Z,50.92
2019-03-13T02:48:47.744Z,51.01
2019-03-13T02:51:23.490Z,51.08
2019-03-13T02:53:59.357Z,51.11
2019-03-13T02:56:39.612Z,50.83
2019-03-13T02:59:33.141Z,51.01
2019-03-13T03:02:30.936Z,50.77
2019-03-13T03:05:27.177Z,50.44
2019-03-13T03:08:05.315Z,51.07
2019-03-13T03:10:44.301Z,51.09
2019-03-13T03:13:20.916Z,50.90
2019-03-13T03:15:56.746Z,51.23
2019-03-13T03:18:32.600Z,51.43
2019-03-13T03:21:08.443Z,51.38
2019-03-13T03:23:45.439Z,51.56
2019-03-13T03:26:21.593Z,51.65
2019-03-13T03:28:57.446Z,51.95
2019-03-13T03:31:33.314Z,52.05
2019-03-13T03:34:09.145Z,52.29
2019-03-13T03:36:45.191Z,52.26
2019-03-13T03:39:21.074Z,52.32
2019-03-13T03:41:58.258Z,52.68
2019-03-13T03:44:34.095Z,52.40
2019-03-13T03:47:09.852Z,52.51
2019-03-13T03:49:52.761Z,52.53
2019-03-13T03:58:44.226Z,52.56
2019-03-13T04:01:47.191Z,52.53
2019-03-13T04:05:11.413Z,52.56
2019-03-13T04:08:38.126Z,52.50
2019-03-13T04:11:55.601Z,52.16
2019-03-13T04:18:43.073Z,51.73
2019-03-13T04:21:33.536Z,51.42
2019-03-13T04:24:09.823Z,51.48
2019-03-13T04:26:46.364Z,51.55
2019-03-13T04:29:26.014Z,51.75
2019-03-13T04:32:08.341Z,51.81
2019-03-13T04:34:57.250Z,51.92
2019-03-13T04:38:19.400Z,52.18
2019-03-13T04:41:19.857Z,52.04
2019-03-13T04:48:01.625Z,52.02
2019-03-13T04:50:55.277Z,52.27
2019-03-13T04:53:32.215Z,52.53
2019-03-13T04:56:08.174Z,52.40
2019-03-13T04:58:44.390Z,52.38
2019-03-13T05:01:20.296Z,52.31
2019-03-13T05:03:57.069Z,52.16
2019-03-13T05:06:32.811Z,52.18
2019-03-13T05:09:08.773Z,52.20
2019-03-13T05:11:44.736Z,51.93
2019-03-13T05:14:32.556Z,52.01
2019-03-13T05:17:23.981Z,51.89
2019-03-13T05:20:07.660Z,51.72
2019-03-13T05:23:04.970Z,51.81
2019-03-13T05:26:06.829Z,51.42
2019-03-13T05:29:12.877Z,51.60
2019-03-13T05:31:59.925Z,51.75
2019-03-13T05:34:35.767Z,51.65
2019-03-13T05:37:11.522Z,51.78
2019-03-13T05:39:47.383Z,51.56
2019-03-13T05:42:23.341Z,51.66
2019-03-13T05:44:59.192Z,51.48
2019-03-13T05:47:35.151Z,51.50
2019-03-13T05:50:14.793Z,51.45
2019-03-13T05:52:50.750Z,51.60
2019-03-13T05:55:26.707Z,51.59
2019-03-13T05:58:02.725Z,51.79
2019-03-13T06:00:38.625Z,51.77
2019-03-13T06:03:14.581Z,51.78
2019-03-13T06:05:50.736Z,51.66
2019-03-13T06:08:27.213Z,51.88
2019-03-13T06:11:03.070Z,52.19
2019-03-13T06:13:38.977Z,51.99
2019-03-13T06:16:14.786Z,51.96
2019-03-13T06:18:52.946Z,51.94
2019-03-13T06:21:28.315Z,52.22
2019-03-13T06:24:13.420Z,52.10
2019-03-13T06:26:51.997Z,51.93
2019-03-13T06:29:31.504Z,52.05
2019-03-13T06:32:05.908Z,52.04
2019-03-13T06:34:41.716Z,51.92
2019-03-13T06:37:17.470Z,52.02
2019-03-13T06:39:53.525Z,52.22
2019-03-13T06:42:29.268Z,52.07
2019-03-13T06:45:07.787Z,52.18
2019-03-13T06:47:44.010Z,52.45
2019-03-13T06:50:24.221Z,52.40
2019-03-13T06:52:59.958Z,52.31
2019-03-13T06:55:35.985Z,52.40
2019-03-13T06:58:12.192Z,52.50
2019-03-13T07:00:59.439Z,52.47
2019-03-13T07:03:46.526Z,52.72
2019-03-13T07:06:36.209Z,52.81
2019-03-13T07:09:13.589Z,53.10
2019-03-13T07:11:54.048Z,53.04
2019-03-13T07:14:31.435Z,52.92
2019-03-13T07:17:08.841Z,52.65
2019-03-13T07:19:58.301Z,53.02
2019-03-13T07:22:45.326Z,52.78
2019-03-13T07:25:35.111Z,52.44
2019-03-13T07:28:12.690Z,53.21
2019-03-13T07:31:08.489Z,53.59
2019-03-13T07:33:51.862Z,54.34
2019-03-13T07:36:41.271Z,55.44
2019-03-13T07:39:27.945Z,55.58
2019-03-13T07:42:21.387Z,55.42
2019-03-13T07:45:02.044Z,55.75
2019-03-13T07:47:51.894Z,55.56
2019-03-13T07:50:29.538Z,55.65
2019-03-13T07:53:12.970Z,55.65
2019-03-13T07:55:59.606Z,54.94
2019-03-13T07:58:39.235Z,55.25
2019-03-13T08:01:22.603Z,54.98
2019-03-13T08:04:12.341Z,54.90
2019-03-13T08:06:49.955Z,55.07
2019-03-13T08:09:30.192Z,55.00
2019-03-13T08:12:25.589Z,55.35
2019-03-13T08:15:05.842Z,55.91
2019-03-13T08:17:46.164Z,55.96
2019-03-13T08:20:32.450Z,55.70
2019-03-13T08:23:13.319Z,55.60
2019-03-13T08:25:50.663Z,55.38
2019-03-13T08:28:33.981Z,55.25
2019-03-13T08:31:11.501Z,55.07
2019-03-13T08:33:50.319Z,55.16
2019-03-13T08:36:33.540Z,54.90
2019-03-13T08:39:23.217Z,55.18
2019-03-13T08:42:12.801Z,55.08
2019-03-13T08:44:56.012Z,55.63
2019-03-13T08:47:36.428Z,55.44
2019-03-13T08:50:13.966Z,55.75
2019-03-13T08:52:51.381Z,56.15
2019-03-13T08:55:28.757Z,56.36
2019-03-13T08:58:11.884Z,56.58
2019-03-13T09:00:52.036Z,56.91
2019-03-13T09:03:29.418Z,56.88
2019-03-13T09:06:16.132Z,56.65
2019-03-13T09:08:59.866Z,56.51
2019-03-13T09:11:43.327Z,56.42
2019-03-13T09:14:20.696Z,56.23
2019-03-13T09:17:00.844Z,56.37
2019-03-13T09:19:44.338Z,56.84
2019-03-13T09:22:37.956Z,57.09
2019-03-13T09:25:27.639Z,57.03
2019-03-13T09:28:21.525Z,57.27
2019-03-13T09:31:05.049Z,57.22
2019-03-13T09:33:54.518Z,57.15
2019-03-13T09:36:31.913Z,56.86
2019-03-13T09:39:26.703Z,56.73
2019-03-13T09:42:20.161Z,56.37
2019-03-13T09:44:57.564Z,55.89
2019-03-13T09:47:50.179Z,55.62
2019-03-13T09:50:27.496Z,54.41
2019-03-13T09:53:10.718Z,55.23
2019-03-13T09:56:04.593Z,54.87
2019-03-13T09:58:53.963Z,54.13
2019-03-13T10:01:31.249Z,53.71
2019-03-13T10:04:09.685Z,53.17
2019-03-13T10:06:46.998Z,52.76
2019-03-13T10:09:42.415Z,51.33
2019-03-13T10:12:20.638Z,51.75
2019-03-13T10:15:03.839Z,49.17
2019-03-13T10:17:47.147Z,50.37
2019-03-13T10:20:27.485Z,49.88
2019-03-13T10:23:07.919Z,50.59
2019-03-13T10:25:49.336Z,49.67
2019-03-13T10:28:26.695Z,49.75
2019-03-13T10:31:13.848Z,50.72
2019-03-13T10:33:57.076Z,49.20
2019-03-13T10:36:34.473Z,48.82
2019-03-13T10:39:14.709Z,48.52
2019-03-13T10:42:08.219Z,48.09
2019-03-13T10:44:51.327Z,48.17
2019-03-13T10:47:40.497Z,48.83
2019-03-13T10:50:20.807Z,49.19
2019-03-13T10:53:10.625Z,49.00
2019-03-13T10:55:55.345Z,49.33
2019-03-13T10:58:32.869Z,49.06
2019-03-13T11:01:10.536Z,48.41
2019-03-13T11:03:59.603Z,47.36
2019-03-13T11:06:54.320Z,46.82
2019-03-13T11:09:25.174Z,46.17
2019-03-13T11:12:08.387Z,46.42
2019-03-13T11:14:45.910Z,46.71
2019-03-13T11:17:32.080Z,45.86
2019-03-13T11:20:11.099Z,46.21
2019-03-13T11:23:06.669Z,46.30
2019-03-13T11:25:44.140Z,45.82
2019-03-13T11:28:27.339Z,46.31
2019-03-13T11:31:23.267Z,45.06
2019-03-13T11:34:13.860Z,46.02
2019-03-13T11:37:06.257Z,46.34
2019-03-13T11:40:01.088Z,45.94
2019-03-13T11:42:40.199Z,44.51
2019-03-13T11:45:17.743Z,44.64
2019-03-13T11:48:10.281Z,45.31
2019-03-13T11:50:47.770Z,44.04
2019-03-13T11:53:25.117Z,43.97
2019-03-13T11:56:02.869Z,43.38
2019-03-13T11:58:43.130Z,44.10
2019-03-13T12:01:20.521Z,44.89
2019-03-13T12:04:14.394Z,43.24
2019-03-13T12:06:57.817Z,43.25
2019-03-13T12:09:51.583Z,42.48
2019-03-13T12:12:45.570Z,42.09
2019-03-13T12:15:26.139Z,40.72
2019-03-13T12:18:03.526Z,41.46
2019-03-13T12:20:54.128Z,41.12
2019-03-13T12:23:34.688Z,41.51
2019-03-13T12:26:15.067Z,42.22
2019-03-13T12:28:52.642Z,43.40
2019-03-13T12:31:39.352Z,43.20
2019-03-13T12:34:29.030Z,42.65
2019-03-13T12:37:09.655Z,42.66
2019-03-13T12:40:03.572Z,43.26
2019-03-13T12:42:57.120Z,42.33
2019-03-13T12:45:34.524Z,42.88
2019-03-13T12:48:17.754Z,43.05
2019-03-13T12:50:58.161Z,43.53
2019-03-13T12:53:35.964Z,41.50
2019-03-13T12:56:16.619Z,41.86
2019-03-13T12:58:53.976Z,41.75
2019-03-13T13:01:40.346Z,41.30
2019-03-13T13:04:17.703Z,40.87
2019-03-13T13:07:11.148Z,40.74
2019-03-13T13:09:51.491Z,40.98
2019-03-13T13:12:31.828Z,39.42
2019-03-13T13:15:29.481Z,38.81
2019-03-13T13:18:18.792Z,39.37
2019-03-13T13:20:54.680Z,40.45
2019-03-13T13:23:30.422Z,38.94
2019-03-13T13:26:06.850Z,38.90
2019-03-13T13:28:42.760Z,36.73
2019-03-13T13:31:18.477Z,37.56
2019-03-13T13:33:55.344Z,39.12
2019-03-13T13:36:31.430Z,37.57
2019-03-13T13:39:08.436Z,36.97
2019-03-13T13:41:46.122Z,37.31
2019-03-13T13:44:22.045Z,37.62
2019-03-13T13:46:57.824Z,38.55
2019-03-13T13:49:33.580Z,36.79
2019-03-13T13:52:09.368Z,36.55
2019-03-13T13:55:04.420Z,36.89
2019-03-13T13:57:40.367Z,35.91
2019-03-13T14:00:16.097Z,35.85
2019-03-13T14:02:51.853Z,35.04
2019-03-13T14:05:27.640Z,35.84
2019-03-13T14:08:03.437Z,36.90
2019-03-13T14:10:39.370Z,36.84
2019-03-13T14:13:15.183Z,36.89
2019-03-13T14:15:50.915Z,35.86
2019-03-13T14:18:29.033Z,36.62
2019-03-13T14:21:04.760Z,36.50
2019-03-13T14:23:40.876Z,36.40
2019-03-13T14:26:16.598Z,36.38
2019-03-13T14:28:52.412Z,37.17
2019-03-13T14:31:28.196Z,36.96
2019-03-13T14:34:04.042Z,38.22
2019-03-13T14:36:39.856Z,39.43
2019-03-13T14:39:15.643Z,39.36
2019-03-13T14:41:52.076Z,38.36
2019-03-13T14:44:27.863Z,38.62
2019-03-13T14:47:03.729Z,38.60
2019-03-13T14:49:39.572Z,38.63
2019-03-13T14:52:15.948Z,39.19
2019-03-13T14:54:51.896Z,38.83
2019-03-13T14:57:27.643Z,39.63
2019-03-13T15:00:04.435Z,39.87
2019-03-13T15:02:41.312Z,39.57
2019-03-13T15:05:17.264Z,39.55
2019-03-13T15:07:53.938Z,38.73
2019-03-13T15:10:31.272Z,38.80
2019-03-13T15:13:07.074Z,38.41
2019-03-13T15:15:42.932Z,39.37
2019-03-13T15:18:18.788Z,39.96
2019-03-13T15:20:54.645Z,39.72
2019-03-13T15:23:30.497Z,39.97
2019-03-13T15:26:07.632Z,39.73
2019-03-13T15:28:44.149Z,39.37
2019-03-13T15:31:21.029Z,39.96
2019-03-13T15:33:56.877Z,40.82
2019-03-13T15:36:33.238Z,41.11
2019-03-13T15:39:09.098Z,40.99
2019-03-13T15:41:46.484Z,42.21
2019-03-13T15:44:22.362Z,43.03
2019-03-13T15:46:58.203Z,44.40
2019-03-13T15:49:34.022Z,44.87
2019-03-13T15:52:10.012Z,45.30
2019-03-13T15:54:45.865Z,46.21
2019-03-13T15:57:21.720Z,47.02
2019-03-13T15:59:57.567Z,47.72
2019-03-13T16:02:33.285Z,47.79
2019-03-13T16:05:09.073Z,48.24
2019-03-13T16:07:44.931Z,48.35
2019-03-13T16:10:21.306Z,48.52
2019-03-13T16:12:58.568Z,48.96
2019-03-13T16:15:36.345Z,48.87
2019-03-13T16:18:12.170Z,48.80
2019-03-13T16:20:48.037Z,48.42
2019-03-13T16:23:23.783Z,48.45
2019-03-13T16:25:59.586Z,48.39
2019-03-13T16:28:35.553Z,48.88
2019-03-13T16:31:11.920Z,48.77
2019-03-13T16:33:47.773Z,49.02
2019-03-13T16:36:23.650Z,49.03
2019-03-13T16:38:59.411Z,49.66
2019-03-13T16:41:35.219Z,50.61
2019-03-13T16:44:11.384Z,52.47
2019-03-13T16:46:47.755Z,55.12
2019-03-13T16:49:23.522Z,59.08
2019-03-13T16:51:59.352Z,60.79
2019-03-13T16:54:35.224Z,60.86
2019-03-13T16:57:12.200Z,60.44
2019-03-13T17:00:00.124Z,61.19
2019-03-13T17:02:25.394Z,61.54
2019-03-13T17:05:01.429Z,62.48
2019-03-13T17:07:38.684Z,62.19
2019-03-13T17:10:16.705Z,61.87
2019-03-13T17:12:52.839Z,62.26
2019-03-13T17:15:28.710Z,62.48
2019-03-13T17:18:04.551Z,62.11
2019-03-13T17:20:41.975Z,61.90
2019-03-13T17:23:23.283Z,61.47
2019-03-13T17:26:03.685Z,61.13
2019-03-13T17:28:42.838Z,60.83
2019-03-13T17:31:19.207Z,60.33
2019-03-13T17:33:59.130Z,60.01
2019-03-13T17:36:34.916Z,60.24
2019-03-13T17:39:10.740Z,60.17
2019-03-13T17:41:47.203Z,60.32
2019-03-13T17:44:23.091Z,60.37
2019-03-13T17:46:59.337Z,60.68
2019-03-13T17:49:35.146Z,60.90
2019-03-13T17:52:10.924Z,61.16
2019-03-13T17:54:47.137Z,61.37
2019-03-13T17:57:22.955Z,61.54
2019-03-13T17:59:58.768Z,62.04
2019-03-13T18:02:34.614Z,61.94
2019-03-13T18:05:11.988Z,62.12
2019-03-13T18:07:47.965Z,62.19
2019-03-13T18:10:23.775Z,62.61
2019-03-13T18:12:59.537Z,62.53
2019-03-13T18:15:35.708Z,62.81
2019-03-13T18:18:11.457Z,62.72
2019-03-13T18:20:47.284Z,63.14
2019-03-13T18:23:24.048Z,63.37
2019-03-13T18:25:59.852Z,63.51
2019-03-13T18:28:35.625Z,63.63
2019-03-13T18:31:11.363Z,63.87
2019-03-13T18:33:47.114Z,63.80
2019-03-13T18:36:22.943Z,64.03
2019-03-13T18:38:58.723Z,64.17
2019-03-13T18:41:34.675Z,64.45
2019-03-13T18:44:10.696Z,64.29
2019-03-13T18:46:46.653Z,64.44
2019-03-13T18:49:22.434Z,64.53
2019-03-13T18:51:59.183Z,64.51
2019-03-13T18:54:34.948Z,64.26
2019-03-13T18:57:10.709Z,64.40
2019-03-13T18:59:46.462Z,64.61
2019-03-13T19:02:22.264Z,64.57
2019-03-13T19:04:58.191Z,64.88
2019-03-13T19:07:35.023Z,65.35
2019-03-13T19:10:22.413Z,65.03
2019-03-13T19:12:58.593Z,64.85
2019-03-13T19:15:34.348Z,64.84
2019-03-13T19:18:10.612Z,64.68
2019-03-13T19:20:46.326Z,64.14
2019-03-13T19:23:22.456Z,63.78
2019-03-13T19:25:58.252Z,63.12
2019-03-13T19:28:34.178Z,62.51
2019-03-13T19:31:09.929Z,61.78
2019-03-13T19:33:47.763Z,61.51
2019-03-13T19:36:23.823Z,61.53
2019-03-13T19:38:59.724Z,61.27
2019-03-13T19:41:35.521Z,61.29
2019-03-13T19:44:12.451Z,61.43
2019-03-13T19:46:48.768Z,61.63
2019-03-13T19:49:27.758Z,61.92
2019-03-13T19:52:03.463Z,62.23
2019-03-13T19:54:39.225Z,62.34
2019-03-13T19:57:15.222Z,62.69
2019-03-13T19:59:51.191Z,62.86
2019-03-13T20:02:26.989Z,62.92
2019-03-13T20:05:02.792Z,63.18
2019-03-13T20:07:38.996Z,63.28
2019-03-13T20:10:17.626Z,63.53
2019-03-13T20:12:53.471Z,63.54
2019-03-13T20:15:30.884Z,63.47
2019-03-13T20:18:06.680Z,63.45
2019-03-13T20:20:42.469Z,63.45
2019-03-13T20:23:18.402Z,63.46
2019-03-13T20:25:54.225Z,63.45
2019-03-13T20:28:30.012Z,63.31
2019-03-13T20:31:05.817Z,63.12
2019-03-13T20:33:41.719Z,63.04
2019-03-13T20:36:17.538Z,62.65
2019-03-13T20:38:53.332Z,62.59
2019-03-13T20:41:29.110Z,62.46
2019-03-13T20:44:04.871Z,62.38
2019-03-13T20:46:40.625Z,62.44
2019-03-13T20:49:16.421Z,62.49
2019-03-13T20:51:52.451Z,62.53
2019-03-13T20:54:28.317Z,62.50
2019-03-13T20:57:04.125Z,62.62
2019-03-13T20:59:40.037Z,62.67
2019-03-13T21:02:15.869Z,62.68
2019-03-13T21:04:51.667Z,62.51
2019-03-13T21:07:27.417Z,62.66
2019-03-13T21:10:04.219Z,62.82
2019-03-13T21:12:40.520Z,62.79
2019-03-13T21:15:21.164Z,62.76
2019-03-13T21:17:57.179Z,62.92
2019-03-13T21:20:32.978Z,62.89
2019-03-13T21:23:08.918Z,63.04
2019-03-13T21:25:44.851Z,63.28
2019-03-13T21:28:21.222Z,63.51
2019-03-13T21:30:56.979Z,63.49
2019-03-13T21:33:32.774Z,63.69
2019-03-13T21:36:08.746Z,63.95
2019-03-13T21:38:44.560Z,64.13
2019-03-13T21:41:20.337Z,64.18
2019-03-13T21:43:56.136Z,64.38
2019-03-13T21:46:32.953Z,64.32
2019-03-13T21:49:08.797Z,64.44
2019-03-13T21:51:44.611Z,64.58
2019-03-13T21:54:20.401Z,64.62
2019-03-13T21:56:56.162Z,64.71
2019-03-13T21:59:32.358Z,64.91
2019-03-13T22:02:08.058Z,65.19
2019-03-13T22:04:44.099Z,65.49
2019-03-13T22:07:19.904Z,65.67
2019-03-13T22:09:58.658Z,65.88
2019-03-13T22:12:34.332Z,65.93
2019-03-13T22:15:13.876Z,66.55
2019-03-13T22:17:49.850Z,66.57
2019-03-13T22:20:25.637Z,67.10
2019-03-13T22:23:01.340Z,67.22
2019-03-13T22:25:37.192Z,67.41
2019-03-13T22:28:12.897Z,67.62
2019-03-13T22:30:50.008Z,67.60
2019-03-13T22:33:25.727Z,67.84
2019-03-13T22:36:01.506Z,68.06
2019-03-13T22:38:37.466Z,68.11
2019-03-13T22:41:13.210Z,68.00
2019-03-13T22:43:50.912Z,68.03
2019-03-13T22:46:26.765Z,68.21
2019-03-13T22:49:02.715Z,68.22
2019-03-13T22:51:39.804Z,68.14
2019-03-13T22:54:15.617Z,68.19
2019-03-13T22:56:51.717Z,68.13
2019-03-13T22:59:27.769Z,68.24
2019-03-13T23:02:03.838Z,68.04
2019-03-13T23:04:39.894Z,67.97
2019-03-13T23:07:16.057Z,67.87
2019-03-13T23:09:52.022Z,67.71
2019-03-13T23:12:30.277Z,67.59
2019-03-13T23:15:05.672Z,67.46
2019-03-13T23:17:41.531Z,67.34
2019-03-13T23:20:18.445Z,67.28
2019-03-13T23:22:54.365Z,67.26
2019-03-13T23:25:31.850Z,67.30
2019-03-13T23:28:09.035Z,67.18
2019-03-13T23:30:45.200Z,67.18
2019-03-13T23:33:21.123Z,67.22
2019-03-13T23:35:57.520Z,67.47
2019-03-13T23:38:33.424Z,67.38
2019-03-13T23:41:09.215Z,67.33
2019-03-13T23:43:45.079Z,67.43
2019-03-13T23:46:20.941Z,67.63
2019-03-13T23:48:57.192Z,67.66
2019-03-13T23:51:34.169Z,67.70
2019-03-13T23:54:10.492Z,67.86
2019-03-13T23:56:46.287Z,67.96
2019-03-13T23:59:22.152Z,67.97
